createdAt,value
2023-03-31T00:00:47.289Z,13.45
2023-03-31T00:03:48.821Z,13.63
2023-03-31T00:06:54.231Z,13.62
2023-03-31T00:10:07.093Z,13.66
2023-03-31T00:13:17.752Z,13.68
2023-03-31T00:16:19.348Z,13.70
2023-03-31T00:19:21.187Z,13.59
2023-03-31T00:22:22.703Z,13.66
2023-03-31T00:25:24.112Z,13.54
2023-03-31T00:28:25.489Z,13.65
2023-03-31T00:31:27.964Z,13.67
2023-03-31T00:34:30.060Z,13.73
2023-03-31T00:37:35.315Z,13.64
2023-03-31T00:40:36.809Z,13.53
2023-03-31T00:43:38.799Z,13.19
2023-03-31T00:46:52.478Z,13.17
2023-03-31T00:49:59.712Z,13.10
2023-03-31T00:53:08.626Z,12.80
2023-03-31T00:56:14.842Z,12.52
2023-03-31T00:59:17.682Z,12.03
2023-03-31T01:02:21.978Z,12.03
2023-03-31T01:05:27.762Z,12.02
2023-03-31T01:08:30.480Z,11.80
2023-03-31T01:11:32.019Z,11.81
2023-03-31T01:14:34.069Z,11.77
2023-03-31T01:17:36.908Z,11.99
2023-03-31T01:21:18.625Z,12.07
2023-03-31T01:24:47.302Z,11.69
2023-03-31T01:28:02.025Z,12.06
2023-03-31T01:31:41.839Z,12.17
2023-03-31T01:35:20.263Z,11.61
2023-03-31T01:38:33.717Z,11.69
2023-03-31T01:41:38.156Z,11.99
2023-03-31T01:45:06.432Z,11.91
2023-03-31T01:48:14.750Z,11.48
2023-03-31T01:51:22.193Z,11.95
2023-03-31T01:54:39.296Z,12.01
2023-03-31T01:57:52.470Z,11.63
2023-03-31T02:01:03.617Z,11.72
2023-03-31T02:04:17.293Z,11.63
2023-03-31T02:07:24.730Z,11.54
2023-03-31T02:10:30.757Z,11.35
2023-03-31T02:13:37.150Z,11.63
2023-03-31T02:16:47.341Z,11.77
2023-03-31T02:19:52.691Z,11.73
2023-03-31T02:22:56.628Z,11.36
2023-03-31T02:26:07.055Z,11.57
2023-03-31T02:29:09.020Z,11.75
2023-03-31T02:32:21.904Z,11.55
2023-03-31T02:35:25.158Z,11.73
2023-03-31T02:38:27.209Z,11.75
2023-03-31T02:41:28.704Z,11.85
2023-03-31T02:44:31.482Z,11.87
2023-03-31T02:47:34.322Z,11.61
2023-03-31T02:50:54.696Z,11.82
2023-03-31T02:54:39.177Z,11.37
2023-03-31T02:57:51.827Z,11.51
2023-03-31T03:01:22.285Z,11.41
2023-03-31T03:04:41.878Z,11.46
2023-03-31T03:08:03.615Z,11.31
2023-03-31T03:11:18.642Z,11.35
2023-03-31T03:14:35.896Z,11.34
2023-03-31T03:17:49.894Z,11.50
2023-03-31T03:20:51.421Z,11.57
2023-03-31T03:23:53.015Z,11.62
2023-03-31T03:26:55.197Z,11.52
2023-03-31T03:29:56.621Z,11.40
2023-03-31T03:32:58.921Z,11.60
2023-03-31T03:36:00.621Z,11.62
2023-03-31T03:39:02.105Z,11.60
2023-03-31T03:42:03.820Z,11.73
2023-03-31T03:45:05.880Z,11.91
2023-03-31T03:48:07.350Z,11.91
2023-03-31T03:51:08.822Z,11.70
2023-03-31T03:54:10.370Z,11.86
2023-03-31T03:57:11.839Z,12.13
2023-03-31T04:00:13.592Z,12.31
2023-03-31T04:03:16.873Z,12.29
2023-03-31T04:06:18.367Z,12.26
2023-03-31T04:09:19.817Z,12.33
2023-03-31T04:12:21.288Z,12.26
2023-03-31T04:15:22.843Z,12.14
2023-03-31T04:18:24.289Z,11.49
2023-03-31T04:21:25.705Z,11.75
2023-03-31T04:24:32.621Z,11.72
2023-03-31T04:27:35.052Z,11.63
2023-03-31T04:30:39.695Z,11.68
2023-03-31T04:33:41.687Z,11.67
2023-03-31T04:36:48.562Z,11.69
2023-03-31T04:39:50.710Z,11.99
2023-03-31T04:42:52.300Z,11.80
2023-03-31T04:45:53.767Z,11.92
2023-03-31T04:48:55.196Z,11.82
2023-03-31T04:51:56.603Z,11.83
2023-03-31T04:54:58.004Z,11.60
2023-03-31T04:57:59.676Z,11.85
2023-03-31T05:01:01.104Z,11.70
2023-03-31T05:04:06.261Z,11.47
2023-03-31T05:07:07.726Z,11.52
2023-03-31T05:10:09.957Z,11.53
2023-03-31T05:13:11.945Z,11.59
2023-03-31T05:16:14.597Z,11.56
2023-03-31T05:19:18.158Z,11.71
2023-03-31T05:22:20.644Z,11.51
2023-03-31T05:25:22.519Z,11.46
2023-03-31T05:28:23.960Z,11.42
2023-03-31T05:31:26.193Z,10.97
2023-03-31T05:34:27.592Z,11.13
2023-03-31T05:37:29.478Z,11.04
2023-03-31T05:40:30.907Z,11.38
2023-03-31T05:43:32.519Z,11.32
2023-03-31T05:46:33.979Z,11.50
2023-03-31T05:49:35.472Z,11.51
2023-03-31T05:52:36.904Z,11.52
2023-03-31T05:55:39.008Z,11.43
2023-03-31T05:58:40.521Z,11.42
2023-03-31T06:01:42.265Z,11.22
2023-03-31T06:04:44.021Z,11.17
2023-03-31T06:07:45.712Z,10.96
2023-03-31T06:10:47.152Z,10.84
2023-03-31T06:13:49.148Z,10.90
2023-03-31T06:16:50.616Z,10.93
2023-03-31T06:19:52.049Z,10.83
2023-03-31T06:22:53.542Z,10.78
2023-03-31T06:25:59.005Z,10.61
2023-03-31T06:29:00.609Z,10.77
2023-03-31T06:32:04.950Z,10.85
2023-03-31T06:35:06.895Z,10.70
2023-03-31T06:38:08.852Z,10.77
2023-03-31T06:41:13.315Z,10.83
2023-03-31T06:44:16.590Z,10.68
2023-03-31T06:47:18.005Z,10.84
2023-03-31T06:50:19.738Z,10.84
2023-03-31T06:53:22.172Z,10.86
2023-03-31T06:56:23.811Z,11.04
2023-03-31T06:59:25.217Z,11.07
2023-03-31T07:02:26.730Z,10.78
2023-03-31T07:05:28.898Z,11.19
2023-03-31T07:08:31.013Z,11.22
2023-03-31T07:11:32.685Z,10.97
2023-03-31T07:14:34.096Z,10.98
2023-03-31T07:17:37.449Z,11.44
2023-03-31T07:20:38.921Z,11.79
2023-03-31T07:23:40.626Z,11.62
2023-03-31T07:26:42.188Z,11.51
2023-03-31T07:29:43.730Z,11.49
2023-03-31T07:32:50.083Z,11.66
2023-03-31T07:36:00.298Z,11.85
2023-03-31T07:39:09.717Z,11.79
2023-03-31T07:42:11.172Z,11.97
2023-03-31T07:45:13.405Z,12.00
2023-03-31T07:48:15.055Z,11.99
2023-03-31T07:51:19.203Z,12.24
2023-03-31T07:54:20.858Z,12.60
2023-03-31T07:57:22.528Z,12.68
2023-03-31T08:00:24.610Z,12.36
2023-03-31T08:03:26.445Z,12.60
2023-03-31T08:06:29.890Z,12.61
2023-03-31T08:09:31.374Z,12.56
2023-03-31T08:12:40.754Z,12.65
2023-03-31T08:15:42.173Z,12.60
2023-03-31T08:18:43.716Z,12.86
2023-03-31T08:21:45.373Z,12.68
2023-03-31T08:24:47.316Z,12.68
2023-03-31T08:27:51.166Z,12.94
2023-03-31T08:30:52.659Z,12.74
2023-03-31T08:33:54.162Z,12.90
2023-03-31T08:36:55.595Z,12.79
2023-03-31T08:39:57.159Z,13.16
2023-03-31T08:43:06.450Z,13.19
2023-03-31T08:46:12.297Z,13.49
2023-03-31T08:49:17.696Z,14.41
2023-03-31T08:52:24.686Z,14.91
2023-03-31T08:55:34.433Z,14.62
2023-03-31T08:58:47.771Z,14.49
2023-03-31T09:02:06.111Z,14.46
2023-03-31T09:05:45.945Z,14.01
2023-03-31T09:09:01.792Z,13.93
2023-03-31T09:12:11.205Z,13.71
2023-03-31T09:15:27.887Z,13.53
2023-03-31T09:18:35.374Z,14.12
2023-03-31T09:21:43.712Z,14.75
2023-03-31T09:25:10.275Z,14.31
2023-03-31T09:28:30.906Z,14.23
2023-03-31T09:31:32.833Z,14.31
2023-03-31T09:34:34.637Z,14.41
2023-03-31T09:37:36.248Z,14.53
2023-03-31T09:40:38.057Z,14.71
2023-03-31T09:43:41.403Z,14.92
2023-03-31T09:46:43.179Z,15.06
2023-03-31T09:49:53.574Z,15.03
2023-03-31T09:52:59.709Z,14.61
2023-03-31T09:56:03.790Z,14.59
2023-03-31T09:59:05.408Z,14.36
2023-03-31T10:02:25.444Z,14.35
2023-03-31T10:05:33.930Z,14.02
2023-03-31T10:08:39.624Z,14.19
2023-03-31T10:11:52.813Z,13.85
2023-03-31T10:15:11.884Z,13.66
2023-03-31T10:18:18.877Z,13.25
2023-03-31T10:21:26.061Z,13.20
2023-03-31T10:24:38.043Z,12.68
2023-03-31T10:27:41.907Z,11.59
2023-03-31T10:30:48.520Z,10.64
2023-03-31T10:33:51.986Z,10.10
2023-03-31T10:36:53.600Z,10.25
2023-03-31T10:40:06.578Z,9.76
2023-03-31T10:43:17.152Z,9.76
2023-03-31T10:46:19.326Z,9.84
2023-03-31T10:49:20.832Z,9.80
2023-03-31T10:52:24.876Z,9.78
2023-03-31T10:55:31.345Z,9.50
2023-03-31T10:59:04.500Z,9.76
2023-03-31T11:02:46.687Z,10.44
2023-03-31T11:05:52.405Z,10.75
2023-03-31T11:09:22.493Z,10.83
2023-03-31T11:12:26.848Z,10.72
2023-03-31T11:15:59.885Z,10.47
2023-03-31T11:19:07.299Z,10.71
2023-03-31T11:22:28.966Z,10.75
2023-03-31T11:25:39.882Z,10.67
2023-03-31T11:28:44.275Z,11.50
2023-03-31T11:32:20.436Z,12.10
2023-03-31T11:35:56.741Z,11.77
2023-03-31T11:39:17.024Z,10.96
2023-03-31T11:42:25.971Z,11.35
2023-03-31T11:45:36.222Z,11.75
2023-03-31T11:49:01.797Z,12.72
2023-03-31T11:52:09.873Z,14.27
2023-03-31T11:55:11.209Z,13.93
2023-03-31T11:58:21.906Z,14.34
2023-03-31T12:01:57.814Z,12.36
2023-03-31T12:04:59.773Z,12.38
2023-03-31T12:08:12.209Z,12.45
2023-03-31T12:11:16.365Z,13.09
2023-03-31T12:14:17.697Z,13.14
2023-03-31T12:17:25.658Z,12.22
2023-03-31T12:20:57.719Z,12.15
2023-03-31T12:23:59.186Z,12.31
2023-03-31T12:27:14.754Z,12.39
2023-03-31T12:30:31.382Z,12.51
2023-03-31T12:33:41.166Z,12.49
2023-03-31T12:36:55.705Z,12.25
2023-03-31T12:40:24.045Z,12.36
2023-03-31T12:43:52.513Z,12.23
2023-03-31T12:47:18.841Z,11.34
2023-03-31T12:50:32.340Z,10.68
2023-03-31T12:53:52.458Z,10.22
2023-03-31T12:57:00.023Z,9.82
2023-03-31T13:00:13.746Z,10.34
2023-03-31T13:03:37.157Z,9.55
2023-03-31T13:06:38.559Z,9.46
2023-03-31T13:09:48.501Z,10.32
2023-03-31T13:13:14.373Z,10.46
2023-03-31T13:16:21.002Z,11.04
2023-03-31T13:19:34.743Z,10.89
2023-03-31T13:22:40.352Z,10.72
2023-03-31T13:25:50.618Z,10.76
2023-03-31T13:29:19.328Z,10.52
2023-03-31T13:32:23.276Z,10.58
2023-03-31T13:35:30.936Z,10.81
2023-03-31T13:39:00.358Z,11.16
2023-03-31T13:42:16.702Z,11.62
2023-03-31T13:45:45.319Z,12.12
2023-03-31T13:49:17.539Z,11.85
2023-03-31T13:52:33.413Z,11.93
2023-03-31T13:55:56.440Z,12.14
2023-03-31T13:59:06.039Z,12.72
2023-03-31T14:02:26.478Z,12.52
2023-03-31T14:05:33.908Z,12.52
2023-03-31T14:08:57.366Z,11.95
2023-03-31T14:12:00.302Z,11.93
2023-03-31T14:15:03.532Z,11.97
2023-03-31T14:18:06.883Z,12.18
2023-03-31T14:21:17.901Z,12.30
2023-03-31T14:24:26.289Z,12.27
2023-03-31T14:28:02.429Z,12.13
2023-03-31T14:31:26.878Z,11.98
2023-03-31T14:34:45.535Z,12.04
2023-03-31T14:37:48.907Z,12.28
2023-03-31T14:40:54.502Z,11.69
2023-03-31T14:44:00.472Z,11.88
2023-03-31T14:47:02.004Z,12.14
2023-03-31T14:50:12.950Z,12.03
2023-03-31T14:53:22.957Z,12.04
2023-03-31T14:56:37.379Z,12.36
2023-03-31T14:59:39.006Z,12.13
2023-03-31T15:02:43.402Z,11.92
2023-03-31T15:05:49.849Z,12.12
2023-03-31T15:08:56.341Z,11.88
2023-03-31T15:12:04.149Z,12.15
2023-03-31T15:15:06.693Z,11.98
2023-03-31T15:18:12.583Z,11.87
2023-03-31T15:21:25.774Z,12.20
2023-03-31T15:24:29.040Z,12.16
2023-03-31T15:27:39.854Z,11.56
2023-03-31T15:30:42.303Z,10.01
2023-03-31T15:33:44.077Z,9.03
2023-03-31T15:36:45.839Z,8.14
2023-03-31T15:39:48.768Z,7.97
2023-03-31T15:43:06.475Z,8.28
2023-03-31T15:46:45.523Z,8.64
2023-03-31T15:49:55.326Z,8.87
2023-03-31T15:52:58.112Z,9.04
2023-03-31T15:56:00.287Z,9.46
2023-03-31T15:59:04.359Z,9.87
2023-03-31T16:02:11.852Z,9.68
2023-03-31T16:05:37.409Z,10.10
2023-03-31T16:09:08.935Z,10.02
2023-03-31T16:12:43.031Z,9.90
2023-03-31T16:15:49.546Z,9.90
2023-03-31T16:18:54.727Z,10.19
2023-03-31T16:22:01.865Z,10.03
2023-03-31T16:25:09.136Z,10.33
2023-03-31T16:28:16.661Z,10.53
2023-03-31T16:31:36.534Z,10.68
2023-03-31T16:35:07.752Z,10.63
2023-03-31T16:38:11.583Z,10.70
2023-03-31T16:41:15.742Z,10.64
2023-03-31T16:44:17.181Z,10.63
2023-03-31T16:47:31.581Z,10.33
2023-03-31T16:50:41.154Z,10.16
2023-03-31T16:53:42.849Z,10.14
2023-03-31T16:56:44.287Z,10.58
2023-03-31T16:59:45.786Z,10.67
2023-03-31T17:02:47.551Z,10.57
2023-03-31T17:05:55.183Z,10.57
2023-03-31T17:08:58.642Z,10.71
2023-03-31T17:12:00.392Z,10.66
2023-03-31T17:15:01.906Z,11.05
2023-03-31T17:18:04.547Z,10.82
2023-03-31T17:21:14.041Z,10.83
2023-03-31T17:24:15.478Z,10.78
2023-03-31T17:27:16.939Z,10.40
2023-03-31T17:30:18.567Z,10.48
2023-03-31T17:33:20.424Z,10.47
2023-03-31T17:36:22.376Z,10.66
2023-03-31T17:39:23.824Z,10.78
2023-03-31T17:42:25.672Z,10.55
2023-03-31T17:45:27.217Z,10.35
2023-03-31T17:48:28.691Z,10.49
2023-03-31T17:51:34.372Z,10.52
2023-03-31T17:54:35.943Z,10.60
2023-03-31T17:57:38.933Z,10.50
2023-03-31T18:00:40.572Z,10.36
2023-03-31T18:03:42.384Z,10.40
2023-03-31T18:06:53.113Z,10.26
2023-03-31T18:09:54.786Z,10.30
2023-03-31T18:12:59.791Z,10.70
2023-03-31T18:16:05.260Z,10.61
2023-03-31T18:19:07.382Z,10.82
2023-03-31T18:22:09.948Z,10.58
2023-03-31T18:25:11.701Z,10.71
2023-03-31T18:28:15.087Z,10.56
2023-03-31T18:31:17.190Z,10.71
2023-03-31T18:34:19.537Z,10.65
2023-03-31T18:37:20.883Z,10.71
2023-03-31T18:40:22.471Z,10.62
2023-03-31T18:43:24.552Z,10.52
2023-03-31T18:46:25.953Z,10.46
2023-03-31T18:49:27.725Z,10.56
2023-03-31T18:52:29.161Z,10.64
2023-03-31T18:55:30.820Z,10.85
2023-03-31T18:58:32.404Z,10.49
2023-03-31T19:01:37.216Z,10.73
2023-03-31T19:04:38.852Z,10.60
2023-03-31T19:07:40.978Z,10.75
2023-03-31T19:10:42.666Z,10.67
2023-03-31T19:13:44.353Z,10.54
2023-03-31T19:16:45.860Z,10.18
2023-03-31T19:19:47.620Z,10.56
2023-03-31T19:22:50.796Z,10.11
2023-03-31T19:25:57.487Z,10.25
2023-03-31T19:28:58.930Z,10.23
2023-03-31T19:32:01.427Z,10.21
2023-03-31T19:35:02.920Z,10.02
2023-03-31T19:38:05.118Z,9.81
2023-03-31T19:41:06.628Z,9.84
2023-03-31T19:44:08.020Z,9.76
2023-03-31T19:47:09.443Z,9.90
2023-03-31T19:50:11.198Z,9.91
2023-03-31T19:53:13.679Z,9.89
2023-03-31T19:56:17.402Z,9.74
2023-03-31T19:59:19.044Z,10.13
2023-03-31T20:02:20.810Z,9.96
2023-03-31T20:05:22.357Z,10.05
2023-03-31T20:08:23.921Z,10.01
2023-03-31T20:11:26.888Z,9.94
2023-03-31T20:14:29.479Z,10.05
2023-03-31T20:17:30.941Z,10.05
2023-03-31T20:20:32.927Z,10.01
2023-03-31T20:23:34.925Z,9.91
2023-03-31T20:26:36.698Z,9.81
2023-03-31T20:29:38.328Z,9.88
2023-03-31T20:32:39.884Z,9.86
2023-03-31T20:35:41.829Z,9.64
2023-03-31T20:38:46.204Z,9.58
2023-03-31T20:41:49.509Z,9.82
2023-03-31T20:44:51.253Z,9.81
2023-03-31T20:47:52.741Z,9.88
2023-03-31T20:50:55.481Z,9.68
2023-03-31T20:53:59.048Z,9.71
2023-03-31T20:57:05.432Z,9.61
2023-03-31T21:00:07.572Z,9.45
2023-03-31T21:03:10.354Z,9.58
2023-03-31T21:06:14.173Z,9.69
2023-03-31T21:09:16.420Z,9.75
2023-03-31T21:12:17.769Z,9.58
2023-03-31T21:15:19.246Z,9.58
2023-03-31T21:18:20.853Z,9.25
2023-03-31T21:21:24.321Z,9.31
2023-03-31T21:24:26.413Z,9.32
2023-03-31T21:27:27.936Z,9.43
2023-03-31T21:30:29.389Z,9.61
2023-03-31T21:33:31.723Z,8.95
2023-03-31T21:36:33.412Z,9.30
2023-03-31T21:39:35.170Z,9.25
2023-03-31T21:42:37.422Z,9.30
2023-03-31T21:45:39.419Z,9.03
2023-03-31T21:48:40.808Z,8.62
2023-03-31T21:51:42.276Z,8.65
2023-03-31T21:54:46.679Z,9.10
2023-03-31T21:57:48.201Z,9.22
2023-03-31T22:00:49.588Z,9.14
2023-03-31T22:03:51.845Z,9.00
2023-03-31T22:06:53.326Z,8.90
2023-03-31T22:09:54.786Z,8.98
2023-03-31T22:12:56.311Z,8.85
2023-03-31T22:16:00.005Z,9.27
2023-03-31T22:19:01.521Z,9.20
2023-03-31T22:22:14.095Z,9.17
2023-03-31T22:25:15.686Z,9.05
2023-03-31T22:28:17.649Z,9.22
2023-03-31T22:31:19.304Z,9.34
2023-03-31T22:34:20.900Z,9.40
2023-03-31T22:37:22.405Z,9.35
2023-03-31T22:40:23.931Z,9.24
2023-03-31T22:43:25.436Z,9.36
2023-03-31T22:46:26.917Z,9.23
2023-03-31T22:49:28.347Z,9.55
2023-03-31T22:52:29.965Z,9.40
2023-03-31T22:55:31.650Z,9.14
2023-03-31T22:58:33.624Z,9.21
2023-03-31T23:01:35.181Z,9.66
2023-03-31T23:04:36.622Z,9.21
2023-03-31T23:07:38.553Z,9.57
2023-03-31T23:10:40.189Z,9.24
2023-03-31T23:13:41.739Z,9.42
2023-03-31T23:16:43.369Z,9.42
2023-03-31T23:19:47.596Z,9.08
2023-03-31T23:22:50.088Z,9.31
2023-03-31T23:25:51.488Z,9.54
2023-03-31T23:28:54.429Z,9.12
2023-03-31T23:31:55.960Z,9.09
2023-03-31T23:34:57.485Z,9.12
2023-03-31T23:37:58.949Z,9.27
2023-03-31T23:41:01.628Z,9.28
2023-03-31T23:44:03.120Z,9.43
2023-03-31T23:47:05.776Z,9.51
2023-03-31T23:50:09.107Z,9.31
2023-03-31T23:53:11.387Z,9.42
2023-03-31T23:56:13.099Z,9.11
2023-03-31T23:59:15.389Z,9.53
